VYMD/MDL METAR and TAF weather

Enter ICAO airport designator
Station Type Date Time Source
VYMD METAR 2019/10/21 04:30 UTC NOAA

VYMD 210430Z 12005KT 8000 SCT025 34/26 Q1012 NOSIG


Station Type Date Time Source
VYMD Decoded METAR 2019/10/21 04:30 UTC NOAA

Station name not available
Oct 21, 2019 - 12:30 AM EDT / 2019.10.21 0430 UTC
Wind: from the ESE (120 degrees) at 6 MPH (5 KT):0
Visibility: 4 mile(s):0
Sky conditions: partly cloudy
Temperature: 93 F (34 C)
Heat index: 109.6 F (43.1 C):1
Dew Point: 78 F (26 C)
Relative Humidity: 63%
Pressure (altimeter): 29.88 in. Hg (1012 hPa)
ob: VYMD 210430Z 12005KT 8000 SCT025 34/26 Q1012 NOSIG
cycle: 4

Station Type Date Time Source
VYMD TAF 2019/10/20 18:00 UTC NOAA

TAF VYMD 201700Z 2018/2118 32003KT 7000 SCT025
TEMPO 2018/2024 34005KT 6000 SCT020 FEW025CB

Example: see airport list